Springville, California
Current Conditions -  °F | °C
As of 7:55 AM on Thursday 30 Oct 2014 (Local Time) from KPTV Reporting Station
Clear Clear  
Wind Chill: 52°   Ceiling: Unl
Heat Index: 52°   Visibility: 10mi
Dew Point: 39°   Wind: 7mph
Humidity: 62%   Direction: 80°E
Pressure: 29.99"   Gusts: NA
Location:  36.13°N, 118.82°W
Report Text: KPTV 301455Z AUTO 08006KT 10SM CLR 11/04 A2999 RMK AO1 54000
Loading
Personal Weather Stations






























Interactive Weather Map
Tropical Storm Tracking
New forecast layout! Learn more

10-Day Weather Forecast

Advertisements
Track Severe Weather on mobile